Airfield :
LOGIN :

Register | Disclaimer

   EN    FR    IT 

 










Legend :    VFR   Marginal VFR   IFR   Intensive IFR   Very Intensive IFR
Visi :
Ceiling :
>= 8 km
>= 3000ft
5 to 8 km
1000 to 3000 ft
1500m to 5 km
500 to 1000 ft
800 to 1500m
200 to 500 ft
< 800m
< 200 ft
Symbols :   Thunderstorms  Fog  Heavy snow  Heavy precipitations  Wind > 20 kt
SIGMETs :     Misc.  Thunderstorms  Icing  Turbulence  Mountain Waves  Volcanic Ashes







- Airport Elevation : 286 ft
- IATA code : FFD


EGVA - RAF Fairford

CURRENT METAR :
  • 231401Z AUTO 33011G23KT 9999 FEW032 BKN048 OVC055 12/05 A3017 RMK AO2 SLP221 $

EXPIRED METARs :
  • 231322Z AUTO 31010KT 9999 FEW029 SCT038 SCT047 BKN060 12/06 A3015 RMK AO2 DZB1259E17 SLP214 $
  • 231317Z AUTO 31011KT 9999 SCT029 SCT038 BKN047 BKN060 11/06 A3015 RMK AO2 DZB1259E17 SLP214 $
  • 231309Z AUTO 31011G19KT 9999 -DZ BKN029 BKN038 BKN047 11/06 A3015 RMK AO2 DZB1259 SLP214 $
  • 231259Z AUTO 33012G18KT 9999 -DZ BKN029 OVC038 12/06 A3014 RMK AO2 DZB59 SLP211 $
  • 231241Z AUTO 35010KT 9999 SCT029 BKN035 12/06 A3013 RMK AO2 SLP207 $
  • 231156Z AUTO 31009KT 9999 BKN110 11/06 A3012 RMK AO2 SLP204 60036 70069 T01050061 10105 20080 52027 $
  • 231056Z AUTO 35005KT 9999 FEW070 10/06 A3009 RMK AO2 RAE06DZB06E08RAB08E35 SLP194 P0000 T00950062 $

Expired Forecast.
No reported NOTAMs for that airfield.
1 SIGMET reported for the London FIR (EGTT) :
 
Severe turbulence
EGTT SIGMET 03 VALID 231330/231630 EGRR
EGTT LONDON FIR SEV TURB FCST WI N5100 E00128 - N5040 E00128 - N5000 W00014 - N5031 W00005 - N5102 E00122 - N5130 E00200 - N5107 E00201 - N5100 E00128 SFC/FL060 MOV E 30KT WKN=



MET'MAP, your aeronautical weather chart ! - Copyright ORBIFLY December 2007 - Disclaimer

ORBIFLY MET'MAP TEAM :

Programming & Development : Alexandra Zaïnal
Concept & Development : Baudouin d'Aumeries
Co-Development & Prog : Marc-Olivier Méhu
Technical & hardware support : Manuel Goepfert

Contact : metmap@orbifly.com




SOURCES & CREDITS :

   NOAA